Latest Weather Observations for Tamworth Airport

IDN60801

Issued at 11:35 am EST Wednesday 3 September 2014 (issued every 30 minutes, with the page automatically refreshed every 10 minutes)

About weather observations | Map of weather stations | Latest weather observations for NSW | Other Formats
Station Details ID: 055325 Name: TAMWORTH AIRPORT AWS Lat: -31.07 Lon: 150.84 Height: 394.9 m
Data from the previous 72 hours. | See also: Recent months at Tamworth Airport
Date/Time
EST
Temp
°C
App
Temp
°C
Dew
Point
Rel
Hum
%
Delta-T
°C
Wind Press
QNH
hPa
Press
MSL
hPa
Rain
since 9 am
mm
Dir
 
Spd
km/h
Gust
km/h
Spd
kts
Gust
kts
03/11:30am 12.8 6.8 0.9 44 5.1 SSW 22 33 12 18 1014.7 1014.3 0.0
03/11:00am 12.6 7.2 1.3 46 4.9 SSW 19 24 10 13 1015.1 1014.7 0.0
03/10:30am 11.6 6.6 1.5 50 4.4 SW 17 26 9 14 1015.7 1015.2 0.0
03/10:00am 10.7 5.1 1.0 51 4.1 SW 20 33 11 18 1015.8 1015.3 0.0
03/09:30am 10.5 5.0 2.1 56 3.6 SW 20 32 11 17 1015.9 1015.4 0.0
03/09:00am 9.8 4.6 2.6 61 3.1 WSW 19 28 10 15 1015.8 1015.3 4.2
03/08:30am 9.3 4.4 2.2 61 3.1 W 17 22 9 12 1016.1 1015.6 4.2
03/08:00am 7.1 3.4 2.6 73 1.9 NW 11 15 6 8 1016.1 1015.6 4.2
03/07:30am 5.4 2.6 3.1 85 1.0 NNW 7 9 4 5 1015.7 1015.2 4.2
03/07:00am 4.5 1.1 2.0 84 1.0 NW 9 11 5 6 1015.2 1014.8 4.2
03/06:30am 4.4 1.0 1.9 84 1.0 N 9 13 5 7 1014.8 1014.4 4.2
03/06:00am 5.7 2.5 3.2 84 1.1 NNW 9 15 5 8 1014.7 1014.3 4.2
03/05:30am 6.0 2.1 3.2 82 1.2 NW 13 15 7 8 1014.5 - 4.2
03/05:00am 6.0 3.3 3.5 84 1.1 N 7 11 4 6 1014.2 1013.8 4.2
03/04:30am 5.5 2.3 2.8 83 1.1 NNW 9 11 5 6 1014.0 - 4.2
03/04:00am 6.1 4.2 3.1 81 1.3 S 2 7 1 4 1014.0 1013.5 4.2
03/03:30am 6.4 2.4 3.0 79 1.5 S 13 17 7 9 1013.7 - 4.2
03/03:00am 6.4 1.3 3.2 80 1.4 SW 19 28 10 15 1014.0 1013.5 4.2
03/02:30am 6.5 1.3 3.8 83 1.2 WSW 20 26 11 14 1014.1 - 4.0
03/02:00am 7.0 0.3 3.4 78 1.6 SW 28 37 15 20 1014.2 1013.8 3.6
03/01:30am 7.7 1.6 2.8 71 2.1 SW 24 35 13 19 1014.2 - 3.4
03/01:00am 8.7 3.5 2.5 65 2.7 SW 19 24 10 13 1014.3 1013.9 3.4
03/12:30am 8.3 3.9 2.5 67 2.5 WNW 15 17 8 9 1013.8 - 3.4
03/12:00am 8.1 3.6 2.1 66 2.5 WNW 15 20 8 11 1013.9 1013.4 3.4
 
Date/Time
EST
Temp
°C
App
Temp
°C
Dew
Point
Rel
Hum
%
Delta-T
°C
Wind Press
QNH
hPa
Press
MSL
hPa
Rain
since 9 am
mm
Dir
 
Spd
km/h
Gust
km/h
Spd
kts
Gust
kts
02/11:30pm 8.3 2.7 1.5 62 2.9 W 20 28 11 15 1013.8 - 3.4
02/11:00pm 8.0 2.5 1.6 64 2.7 WNW 20 33 11 18 1013.9 1013.4 3.4
02/10:30pm 7.6 2.1 1.7 66 2.5 WNW 20 26 11 14 1014.3 - 3.4
02/10:00pm 7.4 2.5 1.9 68 2.3 NW 17 22 9 12 1014.5 1014.1 3.4
02/09:30pm 6.1 2.8 2.2 76 1.6 NNW 9 13 5 7 1014.7 - 3.4
02/09:00pm 6.7 3.4 2.4 74 1.8 N 9 11 5 6 1014.9 1014.5 3.4
02/08:30pm 8.1 5.2 2.8 69 2.3 SSW 7 15 4 8 1014.8 - 3.4
02/08:00pm 8.8 3.5 3.0 67 2.5 SW 20 28 11 15 1015.1 1014.7 3.4
02/07:30pm 7.8 3.6 3.7 75 1.8 WSW 15 20 8 11 1014.4 - 3.4
02/07:09pm 8.4 4.2 4.0 74 2.0 WSW 15 20 8 11 1013.9 - 3.4
02/07:00pm 8.3 1.6 3.6 72 2.1 SW 28 46 15 25 1014.2 1013.8 3.2
02/06:58pm 8.5 0.9 3.1 69 2.4 SW 32 50 17 27 1014.1 - 3.2
02/06:48pm 11.1 3.5 2.7 56 3.7 WSW 32 50 17 27 1013.7 - 2.4
02/06:30pm 10.3 4.9 2.4 58 3.4 W 20 26 11 14 1012.9 - 2.4
02/06:00pm 10.6 4.8 2.2 56 3.7 W 22 32 12 17 1012.3 1011.9 2.4
02/05:30pm 11.5 5.4 2.5 54 4.0 W 24 32 13 17 1011.8 - 2.4
02/05:00pm 13.4 5.5 1.1 43 5.4 W 32 43 17 23 1011.6 1011.1 2.4
02/04:43pm 13.2 5.5 2.4 48 4.8 W 32 50 17 27 1011.4 - 2.4
02/04:30pm 13.9 5.6 1.9 44 5.3 W 35 50 19 27 1011.2 - 2.4
02/04:23pm 14.2 6.4 1.8 43 5.5 W 32 50 17 27 1011.1 - 2.4
02/04:00pm 14.4 7.0 4.1 50 4.8 W 32 44 17 24 1011.0 1010.5 2.4
02/03:30pm 13.0 7.7 7.0 67 3.0 W 24 35 13 19 1010.9 - 2.4
02/03:00pm 13.6 6.2 3.9 52 4.5 SW 32 39 17 21 1010.7 1010.2 1.8
02/02:30pm 15.1 8.9 6.1 55 4.4 W 28 39 15 21 1010.8 - 1.8
02/02:00pm 13.2 7.0 6.1 62 3.4 WSW 28 39 15 21 1011.0 1010.5 1.8
02/01:30pm 12.9 7.2 8.4 74 2.3 W 28 37 15 20 1011.0 - 1.8
02/01:05pm 10.2 5.7 7.1 81 1.5 WSW 20 28 11 15 1011.0 - 1.8
02/01:00pm 10.0 5.0 6.5 79 1.7 WSW 22 32 12 17 1010.8 1010.3 1.8
02/12:49pm 9.7 2.1 5.9 77 1.8 W 35 54 19 29 1011.0 - 1.6
02/12:45pm 10.1 2.0 5.1 71 2.3 W 37 48 20 26 1011.3 - 1.0
02/12:39pm 11.5 3.6 6.0 69 2.6 W 37 48 20 26 1011.4 - 0.2
02/12:30pm 12.4 8.1 7.9 74 2.3 WNW 20 30 11 16 1011.4 - 0.2
02/12:00pm 12.1 7.7 9.1 82 1.5 W 22 30 12 16 1011.5 1011.0 0.2
02/11:48am 11.9 7.5 8.9 82 1.5 W 22 32 12 17 1011.5 - 0.2
02/11:31am 11.6 4.4 7.7 77 1.9 W 35 44 19 24 1011.4 - 0.0
02/11:30am 11.8 4.7 7.9 77 1.9 W 35 44 19 24 1011.4 - 0.0
02/11:00am 14.4 9.1 6.7 60 3.8 WNW 24 33 13 18 1011.0 1010.5 0.0
02/10:30am 15.7 12.2 5.6 51 4.9 NNW 13 19 7 10 1010.2 - 0.0
02/10:00am 15.1 11.9 6.7 57 4.2 NW 13 20 7 11 1011.0 1010.5 0.0
02/09:30am 13.6 11.1 6.5 62 3.5 N 9 15 5 8 1011.4 - 0.0
02/09:00am 13.3 9.1 5.7 60 3.7 N 17 22 9 12 1011.8 1011.3 0.0
02/08:30am 12.5 8.5 6.5 67 2.9 N 17 20 9 11 1012.3 - 0.0
02/08:00am 11.5 8.1 6.0 69 2.6 N 13 17 7 9 1012.8 1012.3 0.0
02/07:30am 10.7 8.5 6.1 73 2.2 N 7 13 4 7 1012.6 - 0.0
02/07:00am 9.5 6.4 5.5 76 1.9 N 11 13 6 7 1012.2 1011.8 0.0
02/06:30am 8.5 4.9 4.9 78 1.6 NNE 13 17 7 9 1011.8 - 0.0
02/06:00am 9.5 5.8 4.7 72 2.2 SW 13 17 7 9 1011.5 1011.0 0.0
02/05:30am 8.2 3.5 5.3 82 1.3 SW 19 28 10 15 1011.5 - 0.0
02/05:00am 8.8 5.7 5.4 79 1.6 SE 11 13 6 7 1010.7 1010.2 0.0
02/04:30am 7.9 5.1 5.0 82 1.3 SE 9 11 5 6 1011.0 - 0.0
02/04:00am 7.8 5.6 5.3 84 1.1 SE 6 9 3 5 1011.2 1010.7 0.0
02/03:30am 6.7 4.7 4.2 84 1.1 SSW 4 9 2 5 1011.3 - 0.0
02/03:00am 7.9 5.0 4.8 81 1.4 SSE 9 13 5 7 1011.6 1011.1 0.0
02/02:30am 8.7 5.9 5.3 79 1.6 ESE 9 13 5 7 1012.0 - 0.0
02/02:00am 8.7 6.3 5.4 80 1.5 E 7 13 4 7 1012.3 1011.9 0.0
02/01:30am 8.3 5.1 4.9 79 1.5 SSE 11 13 6 7 1012.9 - 0.0
02/01:00am 9.0 7.1 4.8 75 1.9 SSE 4 7 2 4 1013.3 1012.8 0.0
02/12:30am 9.9 7.3 6.1 77 1.8 SSE 9 19 5 10 1013.8 - 0.0
02/12:00am 8.9 5.7 5.3 78 1.7 SSE 11 13 6 7 1013.8 1013.3 0.0
 
Date/Time
EST
Temp
°C
App
Temp
°C
Dew
Point
Rel
Hum
%
Delta-T
°C
Wind Press
QNH
hPa
Press
MSL
hPa
Rain
since 9 am
mm
Dir
 
Spd
km/h
Gust
km/h
Spd
kts
Gust
kts
01/11:30pm 9.4 7.5 5.0 74 2.0 SE 4 7 2 4 1014.1 - 0.0
01/11:00pm 9.9 7.5 4.3 68 2.5 SSW 6 9 3 5 1014.4 1014.0 0.0
01/10:30pm 11.1 10.0 5.2 67 2.8 CALM 0 0 0 0 1014.5 - 0.0
01/10:00pm 11.9 10.9 5.5 65 3.0 CALM 0 4 0 2 1014.5 1014.1 0.0
01/09:30pm 13.0 11.9 5.2 59 3.7 CALM 0 0 0 0 1014.8 - 0.0
01/09:00pm 13.0 11.9 5.2 59 3.7 CALM 0 0 0 0 1015.1 1014.7 0.0
01/08:30pm 13.3 12.2 5.2 58 3.9 CALM 0 0 0 0 1015.1 - 0.0
01/08:00pm 12.8 11.7 5.0 59 3.7 CALM 0 0 0 0 1015.0 1014.6 0.0
01/07:30pm 14.0 11.8 5.1 55 4.3 NE 6 7 3 4 1014.9 - 0.0
01/07:00pm 14.0 11.9 5.6 57 4.1 ENE 6 7 3 4 1014.9 1014.5 0.0
01/06:30pm 14.6 12.2 5.4 54 4.4 NW 7 9 4 5 1014.8 - 0.0
01/06:00pm 15.5 13.1 5.1 50 5.0 NW 7 9 4 5 1014.6 1014.2 0.0
01/05:30pm 15.9 13.4 4.9 48 5.3 WNW 7 9 4 5 1014.6 - 0.0
01/05:00pm 18.4 15.1 4.6 40 6.7 W 11 17 6 9 1014.7 1014.3 0.0
01/04:30pm 20.2 15.6 3.9 34 8.0 WNW 17 24 9 13 1014.6 - 0.0
01/04:00pm 20.6 16.0 3.8 33 8.2 WNW 17 22 9 12 1014.6 1014.2 0.0
01/03:30pm 20.8 15.8 3.5 32 8.4 NW 19 26 10 14 1014.5 - 0.0
01/03:00pm 21.0 16.4 3.7 32 8.5 WNW 17 22 9 12 1014.7 1014.3 0.0
01/02:30pm 20.3 16.3 3.1 32 8.3 NNW 13 17 7 9 1015.0 - 0.0
01/02:00pm 20.5 15.5 3.7 33 8.2 NW 19 24 10 13 1015.6 1015.1 0.0
01/01:30pm 20.5 14.6 3.7 33 8.2 W 24 30 13 16 1016.0 - 0.0
01/01:00pm 20.1 15.7 5.0 37 7.5 NNW 17 22 9 12 1016.6 1016.2 0.0
01/12:30pm 19.0 12.8 4.4 38 7.1 WNW 26 37 14 20 1017.4 - 0.0
01/12:00pm 19.1 13.7 4.5 38 7.1 WNW 22 30 12 16 1017.9 1017.5 0.0
01/11:30am 19.4 15.2 3.6 35 7.6 WNW 15 28 8 15 1018.2 - 0.0
01/11:00am 18.4 15.7 7.5 49 5.6 NW 11 17 6 9 1018.4 1017.9 0.0
01/10:30am 17.3 15.8 9.0 58 4.4 NW 7 13 4 7 1018.6 - 0.0
01/10:00am 16.1 14.5 8.6 61 3.9 NE 7 13 4 7 1019.1 1018.7 0.0
01/09:30am 15.1 13.5 8.1 63 3.6 E 6 9 3 5 1019.4 - 0.0
01/09:00am 13.3 12.7 7.5 68 2.9 CALM 0 7 0 4 1019.8 1020.0 0.0
01/08:30am 11.5 10.9 7.4 76 2.0 CALM 0 0 0 0 1019.9 - 0.0
01/08:00am 9.4 7.4 6.3 81 1.5 SSE 6 7 3 4 1019.8 1020.0 0.0
01/07:30am 8.1 6.6 6.6 90 0.7 E 4 7 2 4 1019.6 - 0.0
01/07:00am 5.7 4.5 4.5 92 0.5 CALM 0 0 0 0 1019.3 1019.5 0.0
01/06:39am 3.7 1.0 2.4 91 0.5 SSW 6 7 3 4 1019.1 - 0.0
01/06:30am 3.6 0.8 2.3 91 0.5 SSW 6 9 3 5 1018.9 - 0.0
01/06:20am 4.2 1.5 2.9 91 0.5 SW 6 7 3 4 1018.8 - 0.0
01/06:00am 2.8 -0.2 1.0 88 0.7 SSW 6 11 3 6 1018.6 1018.7 0.0
01/05:30am 4.5 2.2 3.0 90 0.6 SSE 4 7 2 4 1018.0 - 0.0
01/05:00am 3.8 0.8 2.0 88 0.7 S 7 9 4 5 1017.8 1018.0 0.0
01/04:30am 4.0 0.7 2.5 90 0.6 SE 9 13 5 7 1017.7 - 0.0
01/04:00am 4.6 2.7 2.9 89 0.7 SE 2 7 1 4 1017.8 1018.0 0.0
01/03:30am 5.7 3.2 3.9 88 0.8 SE 6 7 3 4 1017.7 - 0.0
01/03:00am 6.3 3.4 4.8 90 0.7 S 9 9 5 5 1017.7 1017.9 0.0
01/02:30am 4.9 3.4 2.9 87 0.8 CALM 0 0 0 0 1017.9 - 0.0
01/02:00am 6.7 4.2 4.9 88 0.8 SE 7 11 4 6 1018.0 1018.2 0.0
01/01:30am 7.0 4.6 5.2 88 0.8 SE 7 7 4 4 1018.3 - 0.0
01/01:00am 7.0 4.7 5.0 87 0.9 ESE 6 9 3 5 1018.6 1018.7 0.0
01/12:30am 7.6 6.6 5.4 86 1.0 CALM 0 0 0 0 1018.7 - 0.0
01/12:00am 8.1 7.2 6.2 88 0.9 CALM 0 0 0 0 1018.9 1019.0 0.0
 
Date/Time
EST
Temp
°C
App
Temp
°C
Dew
Point
Rel
Hum
%
Delta-T
°C
Wind Press
QNH
hPa
Press
MSL
hPa
Rain
since 9 am
mm
Dir
 
Spd
km/h
Gust
km/h
Spd
kts
Gust
kts
31/11:30pm 6.3 4.9 3.8 84 1.1 CALM 0 0 0 0 1018.9 - 0.0
31/11:00pm 7.8 6.7 5.1 83 1.2 CALM 0 2 0 1 1018.8 1018.9 0.0
31/10:30pm 9.2 7.2 6.3 82 1.4 SSE 6 7 3 4 1018.7 - 0.0
31/10:00pm 9.1 6.9 6.0 81 1.5 SSE 7 9 4 5 1018.6 1018.7 0.0
31/09:30pm 10.4 8.2 6.2 75 2.0 SSE 7 11 4 6 1018.6 - 0.0
31/09:00pm 10.1 8.0 6.8 80 1.6 E 7 9 4 5 1018.7 1018.8 0.0
31/08:30pm 12.9 11.0 7.4 69 2.7 SE 7 11 4 6 1018.6 - 0.0
31/08:00pm 11.3 10.6 6.8 74 2.2 CALM 0 0 0 0 1018.6 1018.7 0.0
31/07:30pm 11.4 10.6 6.5 72 2.4 CALM 0 0 0 0 1018.4 - 0.0
31/07:00pm 12.8 10.6 5.2 60 3.6 SSW 6 9 3 5 1017.9 1018.1 0.0
31/06:30pm 14.8 12.8 6.9 59 3.9 SW 7 9 4 5 1017.6 - 0.0
31/06:00pm 15.6 13.7 7.4 58 4.1 WSW 7 11 4 6 1017.5 1017.7 0.0
31/05:30pm 17.1 15.2 6.6 50 5.3 SW 6 9 3 5 1017.3 - 0.0
31/05:00pm 19.6 18.1 8.3 48 6.0 WSW 6 9 3 5 1017.2 1017.4 0.0
31/04:30pm 19.9 17.4 6.6 42 6.8 WSW 9 13 5 7 1017.1 - 0.0
31/04:00pm 20.0 17.0 7.7 45 6.4 W 13 19 7 10 1017.2 1017.4 0.0
31/03:30pm 20.4 17.3 7.4 43 6.8 W 13 19 7 10 1017.2 - 0.0
31/03:00pm 20.2 18.4 7.9 45 6.5 WSW 7 13 4 7 1017.3 1017.5 0.0
31/02:30pm 18.5 15.5 7.6 49 5.6 SW 13 20 7 11 1017.5 - 0.0
31/02:00pm 19.5 17.2 7.6 46 6.2 S 9 17 5 9 1017.8 1018.0 0.0
31/01:30pm 19.5 16.7 8.5 49 5.8 S 13 20 7 11 1018.0 - 0.0
31/01:00pm 19.1 17.0 8.4 50 5.6 W 9 15 5 8 1018.5 1018.6 0.0
31/12:30pm 18.2 16.1 8.2 52 5.2 SSW 9 15 5 8 1018.8 - 0.0
31/12:00pm 17.6 15.6 8.7 56 4.7 SSW 9 15 5 8 1019.1 1019.2 0.0

Other Formats:

Comma delimited format used in spreadsheet applications
http://www.bom.gov.au/fwo/IDN60801/IDN60801.95762.axf

JavaScript Object Notation format (JSON) in row-major order
http://www.bom.gov.au/fwo/IDN60801/IDN60801.95762.json